Stations météo

réclame
Mon MeteoGroup
Valencia, Espagne (8285): Température de l'air & dewpoint: 19.02.2018 00:00:00 - 25.02.2018 00:00:00 (CET)Valencia, Espagne (8285): Vitesse du vent & gusts: 19.02.2018 00:00:00 - 25.02.2018 00:00:00 (CET)Valencia, Espagne (8285): Direction du vent: 19.02.2018 00:00:00 - 25.02.2018 00:00:00 (CET)Valencia, Espagne (8285): Quantités de précipitations: 19.02.2018 00:00:00 - 25.02.2018 00:00:00 (CET)
Date & Time tt [°C] td [°C] ff [km/h] ff [knt] fx [km/h] fx [knt] dd rr [mm]
25.02.2018 00:00:00 - - - - - - - -
24.02.2018 23:00:00 10,1 4,6 5 3 11 6 N 0,0
24.02.2018 22:00:00 11,5 5,3 2 1 14 7 E 0,0
24.02.2018 21:00:00 11,8 5,5 2 1 17 9 E 0,0
24.02.2018 20:00:00 11,6 4,6 7 4 18 10 ESE 0,0
24.02.2018 19:00:00 11,5 3,8 8 5 21 12 ESE -
24.02.2018 18:00:00 11,8 3,2 11 6 23 13 ESE 0,0
24.02.2018 17:00:00 12,0 2,1 12 6 23 12 ESE 0,0
24.02.2018 16:00:00 13,0 1,9 9 5 21 11 ESE 0,0
24.02.2018 15:00:00 13,5 2,1 5 3 19 10 ESE 0,0
24.02.2018 14:00:00 11,9 1,5 10 6 21 11 ESE 0,0
24.02.2018 13:00:00 12,5 0,9 7 4 15 8 SSE -
24.02.2018 12:00:00 12,8 2,1 1 1 11 6 S 0,0
24.02.2018 11:00:00 10,8 1,3 3 1 11 6 WNW 0,0
24.02.2018 10:00:00 7,3 0,0 3 2 13 7 W 0,0
24.02.2018 09:00:00 4,9 -1,0 5 3 15 8 WSW 0,0
24.02.2018 08:00:00 3,9 -1,4 6 3 13 7 W 0,0
24.02.2018 07:00:00 3,8 -1,4 5 3 12 7 WSW -
24.02.2018 06:00:00 3,9 -1,4 2 1 8 4 WSW 0,0
24.02.2018 05:00:00 4,3 -1,2 4 2 8 4 SW 0,0
24.02.2018 04:00:00 4,6 -1,2 1 1 8 4 WSW 0,0
24.02.2018 03:00:00 5,0 -1,0 4 2 9 5 WSW 0,0
24.02.2018 02:00:00 5,4 -1,0 5 3 10 5 WSW 0,0
24.02.2018 01:00:00 5,8 -0,7 4 2 9 5 WSW -
24.02.2018 00:00:00 6,5 -0,3 2 1 7 4 NNW 0,0
23.02.2018 23:00:00 6,8 -0,3 5 3 8 4 NNW 0,0
23.02.2018 22:00:00 8,0 0,0 3 2 10 5 NNW 0,0
23.02.2018 21:00:00 9,6 0,0 3 2 15 8 ESE 0,0
23.02.2018 20:00:00 10,2 -0,3 6 4 18 10 SE 0,0
23.02.2018 19:00:00 10,3 -0,7 8 5 21 11 SE -
23.02.2018 18:00:00 10,8 -1,7 10 5 28 15 ESE 0,0
23.02.2018 17:00:00 11,2 -2,0 9 5 28 15 SE 0,0
23.02.2018 16:00:00 11,8 -2,7 11 6 24 13 ESE 0,0
23.02.2018 15:00:00 11,8 -3,6 12 7 24 13 ESE 0,0
23.02.2018 14:00:00 11,1 -5,4 10 6 20 11 ESE 0,0
23.02.2018 13:00:00 12,6 -5,4 3 2 16 9 NE -
23.02.2018 12:00:00 11,8 -5,7 4 2 13 7 SSW 0,0
23.02.2018 11:00:00 9,8 -3,9 3 2 12 7 NW 0,0
23.02.2018 10:00:00 6,2 -5,4 6 3 16 9 WNW 0,0
23.02.2018 09:00:00 4,5 -6,7 8 4 15 8 W 0,0
23.02.2018 08:00:00 3,6 -7,1 4 2 13 7 W 0,0
23.02.2018 07:00:00 3,8 -7,8 5 3 13 7 WSW -
23.02.2018 06:00:00 3,9 -7,5 7 4 11 6 WSW 0,0
23.02.2018 05:00:00 3,9 -7,5 4 2 15 8 W 0,0
23.02.2018 04:00:00 4,1 -6,4 5 3 10 6 WSW 0,0
23.02.2018 03:00:00 4,3 -5,4 4 2 8 5 WSW 0,0
23.02.2018 02:00:00 4,9 -4,2 2 1 10 5 NW 0,0
23.02.2018 01:00:00 5,7 -3,6 6 3 12 6 WSW -
23.02.2018 00:00:00 5,9 -3,3 2 1 11 6 W 0,0
22.02.2018 23:00:00 6,5 -1,4 4 2 9 5 NNW 0,0
22.02.2018 22:00:00 7,2 -0,5 2 1 7 4 W 0,0
22.02.2018 21:00:00 8,0 -0,7 3 2 10 5 NW 0,0
22.02.2018 20:00:00 8,2 -1,4 1 1 6 3 WSW 0,0
22.02.2018 19:00:00 9,9 -1,4 1 0 15 8 ENE -
22.02.2018 18:00:00 10,3 -2,0 6 4 19 10 ESE 0,0
22.02.2018 17:00:00 10,5 -3,0 8 5 20 11 ESE 0,0
22.02.2018 16:00:00 11,6 -3,3 8 5 26 14 E 0,0
22.02.2018 15:00:00 11,5 -3,6 8 4 21 12 E 0,0
22.02.2018 14:00:00 11,4 -3,6 8 4 22 12 ESE 0,0
22.02.2018 13:00:00 11,4 -4,8 5 3 18 10 ESE -
22.02.2018 12:00:00 11,7 -4,2 4 2 14 7 SE 0,0
22.02.2018 11:00:00 10,0 -3,3 3 2 11 6 SSE 0,0
22.02.2018 10:00:00 7,2 -2,7 4 2 11 6 WSW 0,0
22.02.2018 09:00:00 5,6 -3,6 6 3 13 7 SW 0,0
22.02.2018 08:00:00 4,7 -3,6 8 4 16 9 WSW 0,0
22.02.2018 07:00:00 4,8 -3,9 7 4 15 8 WSW -
22.02.2018 06:00:00 5,2 -3,6 6 3 16 8 W 0,0
22.02.2018 05:00:00 5,6 -3,3 6 3 16 9 W 0,0
22.02.2018 04:00:00 5,7 -2,7 5 3 16 9 W 0,0
22.02.2018 03:00:00 6,2 -1,0 5 3 14 8 W 0,0
22.02.2018 02:00:00 7,0 1,5 3 2 13 7 WSW 0,0
22.02.2018 01:00:00 7,9 -1,2 5 3 16 8 NW -
22.02.2018 00:00:00 9,1 -2,0 8 4 18 10 NNW 0,0
21.02.2018 23:00:00 9,4 4,8 5 3 16 9 NNW 0,0
21.02.2018 22:00:00 9,5 5,0 5 3 12 6 NNW 0,0
21.02.2018 21:00:00 9,7 4,1 3 2 8 4 NNW 0,0
21.02.2018 20:00:00 10,9 4,8 0 0 12 6 ESE 0,0
21.02.2018 19:00:00 10,8 4,6 4 2 12 6 N -
21.02.2018 18:00:00 11,0 5,1 0 0 20 11 NNE 0,0
21.02.2018 17:00:00 11,1 5,6 8 5 27 14 E 0,0
21.02.2018 16:00:00 12,1 5,5 10 5 32 17 ESE 0,0
21.02.2018 15:00:00 14,8 1,3 2 1 20 11 ESE 0,0
21.02.2018 14:00:00 14,0 0,2 9 5 24 13 E 0,0
21.02.2018 13:00:00 15,6 0,9 4 2 22 12 ENE -
21.02.2018 12:00:00 16,2 1,5 3 2 19 10 ENE 0,0
21.02.2018 11:00:00 15,1 0,2 5 3 29 16 N 0,0
21.02.2018 10:00:00 13,6 -0,5 10 5 24 13 NNW 0,0
21.02.2018 09:00:00 12,2 0,2 7 4 17 9 NNW 0,0
21.02.2018 08:00:00 10,5 0,0 3 2 13 7 WSW 0,0
21.02.2018 07:00:00 10,3 -0,3 3 2 8 5 SW -
21.02.2018 06:00:00 9,6 -0,7 4 2 11 6 N 0,0
21.02.2018 05:00:00 9,5 -1,4 6 3 12 7 WSW 0,0
21.02.2018 04:00:00 9,9 -1,4 3 2 14 8 W 0,0
21.02.2018 03:00:00 10,3 -1,4 6 3 14 7 WSW 0,0
21.02.2018 02:00:00 10,8 -1,2 4 2 10 5 W 0,0
21.02.2018 01:00:00 11,7 -1,2 5 3 11 6 WSW -
21.02.2018 00:00:00 12,6 -1,0 4 2 15 8 W 0,0
20.02.2018 23:00:00 13,3 -0,7 6 3 16 9 NNW 0,0
20.02.2018 22:00:00 13,7 -0,5 6 3 21 11 NNW 0,0
20.02.2018 21:00:00 14,5 0,0 6 3 24 13 NNW 0,0
20.02.2018 20:00:00 15,3 0,6 9 5 27 15 NNW 0,0
20.02.2018 19:00:00 16,6 2,3 1 1 26 14 W -
20.02.2018 18:00:00 18,5 1,1 12 6 32 17 NW 0,0
20.02.2018 17:00:00 19,6 1,1 10 5 35 19 NW 0,0
20.02.2018 16:00:00 20,7 1,5 10 5 26 14 NNW 0,0
20.02.2018 15:00:00 20,4 1,7 13 7 34 18 N 0,0
20.02.2018 14:00:00 21,1 2,3 17 9 36 20 NNW 0,0
20.02.2018 13:00:00 21,4 3,6 12 7 30 16 NW -
20.02.2018 12:00:00 20,2 4,3 6 4 21 11 NW 0,0
20.02.2018 11:00:00 17,2 5,8 1 0 11 6 W 0,0
20.02.2018 10:00:00 13,1 5,0 5 3 13 7 W 0,0
20.02.2018 09:00:00 11,3 4,1 7 4 16 9 WSW 0,0
20.02.2018 08:00:00 10,9 3,6 8 4 17 9 WSW 0,0
20.02.2018 07:00:00 11,2 3,9 4 2 15 8 W -
20.02.2018 06:00:00 11,1 4,1 6 3 13 7 WSW 0,0
20.02.2018 05:00:00 10,8 4,3 6 3 18 10 WSW 0,0
20.02.2018 04:00:00 10,5 4,6 8 4 13 7 WSW 0,0
20.02.2018 03:00:00 10,1 4,6 5 3 7 4 WSW 0,0
20.02.2018 02:00:00 10,6 5,1 3 2 10 6 SW 0,0
20.02.2018 01:00:00 11,2 5,5 6 3 14 8 SSW -
20.02.2018 00:00:00 11,8 6,2 6 4 12 6 WSW 0,0
19.02.2018 23:00:00 11,7 7,3 2 1 11 6 WSW 0,0
19.02.2018 22:00:00 11,8 7,6 2 1 7 4 W 0,0
19.02.2018 21:00:00 12,0 5,8 1 0 7 4 WNW 0,0
19.02.2018 20:00:00 13,7 6,8 2 1 13 7 SSW 0,0
19.02.2018 19:00:00 14,1 5,1 1 1 14 8 E -
19.02.2018 18:00:00 14,9 3,4 8 5 18 10 ESE 0,0
19.02.2018 17:00:00 15,6 2,5 9 5 20 11 ESE 0,0
19.02.2018 16:00:00 16,9 2,1 9 5 19 10 ESE 0,0
19.02.2018 15:00:00 17,3 1,7 9 5 19 11 ESE 0,0
19.02.2018 14:00:00 17,0 1,9 9 5 17 9 ESE 0,0
19.02.2018 13:00:00 16,7 1,5 6 3 14 8 ESE -
19.02.2018 12:00:00 16,4 1,7 4 2 13 7 SE 0,0
19.02.2018 11:00:00 14,9 3,4 3 1 11 6 SW 0,0
19.02.2018 10:00:00 11,4 3,9 6 3 13 7 WSW 0,0
19.02.2018 09:00:00 9,2 4,3 3 2 10 5 WSW 0,0
19.02.2018 08:00:00 7,6 4,3 3 1 7 4 WSW 0,0
19.02.2018 07:00:00 7,6 4,5 2 1 7 4 SW -
19.02.2018 06:00:00 7,9 5,0 4 2 10 5 WSW 0,0
19.02.2018 05:00:00 8,2 5,8 4 2 9 5 WSW 0,0
19.02.2018 04:00:00 8,7 6,5 5 3 11 6 WSW 0,0
19.02.2018 03:00:00 9,0 6,5 4 2 8 4 WSW 0,0
19.02.2018 02:00:00 9,5 7,0 3 2 8 4 WSW 0,0
19.02.2018 01:00:00 9,9 7,3 3 1 6 3 WSW -
19.02.2018 00:00:00 9,9 7,1 1 1 8 4 N 0,0

tt = Température de l'air
td = dewpoint
ff = Vitesse du vent
fx = gusts
dd = Direction du vent
rr = Quantités de précipitations

stations d'obs. à proximité